createdAt,value
2019-01-26T00:02:41.482Z,-0.36
2019-01-26T00:07:46.690Z,-0.41
2019-01-26T00:12:52.234Z,-0.41
2019-01-26T00:17:58.224Z,-0.41
2019-01-26T00:23:07.480Z,-0.34
2019-01-26T00:28:16.612Z,-0.34
2019-01-26T00:33:22.350Z,-0.30
2019-01-26T00:38:27.668Z,-0.24
2019-01-26T00:43:32.815Z,-0.17
2019-01-26T00:48:38.046Z,-0.21
2019-01-26T00:53:43.276Z,-0.11
2019-01-26T00:58:53.865Z,-0.12
2019-01-26T01:04:00.437Z,-0.03
2019-01-26T01:09:09.135Z,0.05
2019-01-26T01:14:14.332Z,0.10
2019-01-26T01:19:21.978Z,0.13
2019-01-26T01:24:27.088Z,0.12
2019-01-26T01:29:32.348Z,0.15
2019-01-26T01:34:39.016Z,0.13
2019-01-26T01:39:44.407Z,0.17
2019-01-26T01:44:49.571Z,0.05
2019-01-26T01:49:54.769Z,0.02
2019-01-26T01:55:00.005Z,-0.02
2019-01-26T02:00:08.623Z,0.01
2019-01-26T02:05:14.483Z,-0.05
2019-01-26T02:10:20.849Z,-0.12
2019-01-26T02:15:26.499Z,-0.14
2019-01-26T02:20:31.695Z,-0.07
2019-01-26T02:25:36.911Z,-0.05
2019-01-26T02:30:41.966Z,0.04
2019-01-26T02:35:47.143Z,0.03
2019-01-26T02:40:52.496Z,0.03
2019-01-26T02:45:57.965Z,0.05
2019-01-26T02:51:03.088Z,0.10
2019-01-26T02:56:08.348Z,0.07
2019-01-26T03:01:13.817Z,0.14
2019-01-26T03:06:19.074Z,0.09
2019-01-26T03:11:24.569Z,0.12
2019-01-26T03:16:29.820Z,0.12
2019-01-26T03:21:35.610Z,0.12
2019-01-26T03:26:40.848Z,0.16
2019-01-26T03:31:45.962Z,0.24
2019-01-26T03:36:51.228Z,0.26
2019-01-26T03:41:56.535Z,0.23
2019-01-26T03:47:01.892Z,0.22
2019-01-26T03:52:07.156Z,0.31
2019-01-26T03:57:12.319Z,0.30
2019-01-26T04:02:17.996Z,0.28
2019-01-26T04:07:28.423Z,0.32
2019-01-26T04:12:33.818Z,0.35
2019-01-26T04:17:44.481Z,0.41
2019-01-26T04:22:49.950Z,0.41
2019-01-26T04:28:03.463Z,0.42
2019-01-26T04:33:08.690Z,0.50
2019-01-26T04:38:13.873Z,0.56
2019-01-26T04:43:33.017Z,0.61
2019-01-26T04:48:39.565Z,0.64
2019-01-26T04:53:45.281Z,0.70
2019-01-26T04:58:50.597Z,0.77
2019-01-26T05:03:59.974Z,0.75
2019-01-26T05:09:20.980Z,0.71
2019-01-26T05:14:32.529Z,0.77
2019-01-26T05:19:37.759Z,0.84
2019-01-26T05:24:46.289Z,0.89
2019-01-26T05:29:55.161Z,1.00
2019-01-26T05:35:09.474Z,0.96
2019-01-26T05:40:20.543Z,0.95
2019-01-26T05:45:34.247Z,1.04
2019-01-26T05:50:39.781Z,1.06
2019-01-26T05:55:54.593Z,1.08
2019-01-26T06:01:00.759Z,1.09
2019-01-26T06:06:14.642Z,1.11
2019-01-26T06:11:23.482Z,1.24
2019-01-26T06:16:56.377Z,1.24
2019-01-26T06:22:03.549Z,1.21
2019-01-26T06:27:25.732Z,1.21
2019-01-26T06:32:31.680Z,1.20
2019-01-26T06:37:37.331Z,1.18
2019-01-26T06:42:42.813Z,1.11
2019-01-26T06:48:10.597Z,1.17
2019-01-26T06:53:19.709Z,1.22
2019-01-26T06:58:25.103Z,1.21
2019-01-26T07:03:43.591Z,1.15
2019-01-26T07:08:49.283Z,1.16
2019-01-26T07:14:10.255Z,1.14
2019-01-26T07:19:18.592Z,1.22
2019-01-26T07:24:33.807Z,1.25
2019-01-26T07:29:39.397Z,1.26
2019-01-26T07:34:51.549Z,1.41
2019-01-26T07:39:56.740Z,1.43
2019-01-26T07:45:01.834Z,1.49
2019-01-26T07:50:10.253Z,1.59
2019-01-26T07:55:18.386Z,1.63
2019-01-26T08:00:25.618Z,1.59
2019-01-26T08:05:32.633Z,1.63
2019-01-26T08:10:37.912Z,1.73
2019-01-26T08:15:43.989Z,1.73
2019-01-26T08:20:57.578Z,1.80
2019-01-26T08:26:25.430Z,1.89
2019-01-26T08:32:21.764Z,1.98
2019-01-26T08:37:40.376Z,2.00
2019-01-26T08:42:47.478Z,2.04
2019-01-26T08:48:05.976Z,1.95
2019-01-26T08:53:12.232Z,1.99
2019-01-26T08:58:17.975Z,2.03
2019-01-26T09:03:32.242Z,2.04
2019-01-26T09:08:40.596Z,2.08
2019-01-26T09:13:47.136Z,2.15
2019-01-26T09:19:05.024Z,2.21
2019-01-26T09:24:10.256Z,2.18
2019-01-26T09:29:16.410Z,2.16
2019-01-26T09:34:27.373Z,2.12
2019-01-26T09:39:33.303Z,2.16
2019-01-26T09:44:40.858Z,2.23
2019-01-26T09:49:46.107Z,2.26
2019-01-26T09:54:55.734Z,2.32
2019-01-26T10:00:01.108Z,2.28
2019-01-26T10:05:06.962Z,2.29
2019-01-26T10:10:12.518Z,2.41
2019-01-26T10:15:17.774Z,2.36
2019-01-26T10:20:25.230Z,2.43
2019-01-26T10:25:30.900Z,2.48
2019-01-26T10:30:41.308Z,2.43
2019-01-26T10:35:54.178Z,2.46
2019-01-26T10:41:16.808Z,2.46
2019-01-26T10:46:22.092Z,2.45
2019-01-26T10:51:27.447Z,2.52
2019-01-26T10:56:33.902Z,2.56
2019-01-26T11:01:40.192Z,2.55
2019-01-26T11:06:54.926Z,2.50
2019-01-26T11:12:00.288Z,2.53
2019-01-26T11:17:06.362Z,2.57
2019-01-26T11:22:11.502Z,2.61
2019-01-26T11:27:17.085Z,2.69
2019-01-26T11:32:23.076Z,2.68
2019-01-26T11:37:28.812Z,2.72
2019-01-26T11:42:34.488Z,2.65
2019-01-26T11:48:04.301Z,2.69
2019-01-26T11:53:10.056Z,2.77
2019-01-26T11:58:18.552Z,2.87
2019-01-26T12:03:58.335Z,2.88
2019-01-26T12:09:10.486Z,2.90
2019-01-26T12:14:16.332Z,3.01
2019-01-26T12:19:22.463Z,3.11
2019-01-26T12:24:33.454Z,3.13
2019-01-26T12:29:46.652Z,3.31
2019-01-26T12:34:52.318Z,3.61
2019-01-26T12:39:57.516Z,3.77
2019-01-26T12:45:21.783Z,3.88
2019-01-26T12:50:31.868Z,4.00
2019-01-26T12:55:49.414Z,4.07
2019-01-26T13:01:26.609Z,4.11
2019-01-26T13:06:35.563Z,4.14
2019-01-26T13:11:46.783Z,4.17
2019-01-26T13:16:59.516Z,4.18
2019-01-26T13:22:13.258Z,4.15
2019-01-26T13:27:27.922Z,4.17
2019-01-26T13:32:34.452Z,4.25
2019-01-26T13:37:44.186Z,4.24
2019-01-26T13:42:49.306Z,4.32
2019-01-26T13:47:54.982Z,4.36
2019-01-26T13:53:04.016Z,4.40
2019-01-26T13:58:11.519Z,4.45
2019-01-26T14:03:17.868Z,4.49
2019-01-26T14:08:23.152Z,4.51
2019-01-26T14:13:28.834Z,4.52
2019-01-26T14:19:01.364Z,4.51
2019-01-26T14:24:07.785Z,4.61
2019-01-26T14:29:12.943Z,4.56
2019-01-26T14:34:18.605Z,4.74
2019-01-26T14:39:39.951Z,4.77
2019-01-26T14:44:51.178Z,4.75
2019-01-26T14:50:03.232Z,4.64
2019-01-26T14:55:22.169Z,4.63
2019-01-26T15:00:33.399Z,4.64
2019-01-26T15:05:38.755Z,4.61
2019-01-26T15:10:44.262Z,4.68
2019-01-26T15:15:49.858Z,4.72
2019-01-26T15:26:51.742Z,4.74
2019-01-26T15:32:14.382Z,4.78
2019-01-26T15:37:30.759Z,4.72
2019-01-26T15:42:37.660Z,4.75
2019-01-26T15:47:45.556Z,4.71
2019-01-26T15:52:53.215Z,4.78
2019-01-26T15:58:09.608Z,4.83
2019-01-26T16:03:49.854Z,4.77
2019-01-26T16:09:00.761Z,4.79
2019-01-26T16:14:07.992Z,4.75
2019-01-26T16:19:13.351Z,4.70
2019-01-26T16:24:19.134Z,4.79
2019-01-26T16:29:25.105Z,4.87
2019-01-26T16:34:30.914Z,4.91
2019-01-26T16:39:37.396Z,4.95
2019-01-26T16:44:43.143Z,4.94
2019-01-26T16:49:49.142Z,4.96
2019-01-26T16:54:54.482Z,4.99
2019-01-26T17:00:04.538Z,4.98
2019-01-26T17:05:27.610Z,4.98
2019-01-26T17:10:40.219Z,5.04
2019-01-26T17:15:54.631Z,5.05
2019-01-26T17:21:01.825Z,5.09
2019-01-26T17:26:07.445Z,5.10
2019-01-26T17:31:14.690Z,5.09
2019-01-26T17:36:34.883Z,5.06
2019-01-26T17:41:40.939Z,5.09
2019-01-26T17:46:46.546Z,5.15
2019-01-26T17:51:52.306Z,5.19
2019-01-26T17:57:01.188Z,5.20
2019-01-26T18:02:06.865Z,5.16
2019-01-26T18:07:12.082Z,5.02
2019-01-26T18:12:18.463Z,5.02
2019-01-26T18:17:25.998Z,5.00
2019-01-26T18:22:33.525Z,5.07
2019-01-26T18:27:39.142Z,5.10
2019-01-26T18:32:44.549Z,5.01
2019-01-26T18:37:55.715Z,5.07
2019-01-26T18:43:01.405Z,5.06
2019-01-26T18:48:07.366Z,5.07
2019-01-26T18:53:13.432Z,5.12
2019-01-26T18:58:22.298Z,5.20
2019-01-26T19:04:24.176Z,5.24
2019-01-26T19:09:29.775Z,5.24
2019-01-26T19:14:40.603Z,5.25
2019-01-26T19:19:46.175Z,5.27
2019-01-26T19:24:55.985Z,5.35
2019-01-26T19:30:01.800Z,5.34
2019-01-26T19:35:09.569Z,5.33
2019-01-26T19:40:37.489Z,5.24
2019-01-26T19:45:45.836Z,5.20
2019-01-26T19:50:53.409Z,5.29
2019-01-26T19:56:16.016Z,5.32
2019-01-26T20:01:25.316Z,5.29
2019-01-26T20:06:30.884Z,5.20
2019-01-26T20:11:43.975Z,5.19
2019-01-26T20:17:07.378Z,5.05
2019-01-26T20:22:19.075Z,5.04
2019-01-26T20:27:32.868Z,5.09
2019-01-26T20:32:39.099Z,5.08
2019-01-26T20:37:59.545Z,5.00
2019-01-26T20:43:22.247Z,5.01
2019-01-26T20:48:57.557Z,5.03
2019-01-26T20:54:20.130Z,4.93
2019-01-26T20:59:28.288Z,4.86
2019-01-26T21:04:36.903Z,4.88
2019-01-26T21:09:42.974Z,4.83
2019-01-26T21:14:50.316Z,4.79
2019-01-26T21:20:02.310Z,4.80
2019-01-26T21:25:10.329Z,4.73
2019-01-26T21:30:21.144Z,4.74
2019-01-26T21:35:26.700Z,4.69
2019-01-26T21:40:35.996Z,4.73
2019-01-26T21:45:41.350Z,4.71
2019-01-26T21:50:51.921Z,4.70
2019-01-26T21:56:05.344Z,4.70
2019-01-26T22:01:10.731Z,4.69
2019-01-26T22:06:27.709Z,4.69
2019-01-26T22:11:33.407Z,4.72
2019-01-26T22:16:38.553Z,4.68
2019-01-26T22:21:53.161Z,4.71
2019-01-26T22:27:06.919Z,4.68
2019-01-26T22:32:15.015Z,4.66
2019-01-26T22:37:20.584Z,4.65
2019-01-26T22:42:26.710Z,4.66
2019-01-26T22:47:34.778Z,4.60
2019-01-26T22:52:40.698Z,4.48
2019-01-26T22:58:13.103Z,4.41
2019-01-26T23:04:33.092Z,4.41
2019-01-26T23:08:44.500Z,4.40
2019-01-26T23:14:18.162Z,4.44
2019-01-26T23:25:57.542Z,4.50
2019-01-26T23:31:20.388Z,4.47
2019-01-26T23:36:26.972Z,4.50
2019-01-26T23:41:32.035Z,4.49
2019-01-26T23:46:37.592Z,4.42
2019-01-26T23:51:43.286Z,4.40
2019-01-26T23:56:59.211Z,4.39
